Time;durP1;ratioP1;P1;durP2;ratioP2;P2;SDS_P1;SDS_P2;PMS_P1;PMS_P2;Temp;Humidity;BMP_temperature;BMP_pressure;BME280_temperature;BME280_humidity;BME280_pressure;Samples;Min_cycle;Max_cycle;Signal;HPM_P1;HPM_P2
2022/07/17 00:01:00;;;;;;;4.55;1.30;;;;;;;26.03;30.43;99079.13;5075671;28;20027;-49
2022/07/17 00:03:26;;;;;;;5.93;1.50;;;;;;;25.97;30.58;99076.84;5075645;28;20069;-50
2022/07/17 00:05:52;;;;;;;10.07;2.20;;;;;;;26.00;30.61;99084.31;5093781;28;20073;-49
2022/07/17 00:08:18;;;;;;;7.07;2.15;;;;;;;26.07;30.43;99082.84;5075661;28;20024;-49
2022/07/17 00:10:43;;;;;;;8.73;1.80;;;;;;;26.12;30.47;99079.28;5075536;28;20020;-49
2022/07/17 00:13:10;;;;;;;11.63;2.30;;;;;;;26.30;30.10;99075.75;5093627;28;20078;-49
2022/07/17 00:15:36;;;;;;;12.32;1.85;;;;;;;26.47;30.13;99077.09;5093591;28;20032;-50
2022/07/17 00:18:02;;;;;;;11.13;2.38;;;;;;;26.51;30.00;99070.81;5075142;28;20065;-50
2022/07/17 00:20:29;;;;;;;12.35;1.75;;;;;;;26.42;29.85;99075.31;5075305;28;20031;-49
2022/07/17 00:22:56;;;;;;;6.18;1.85;;;;;;;26.44;29.85;99072.28;5075252;28;20034;-49
2022/07/17 00:25:22;;;;;;;8.38;1.73;;;;;;;26.46;29.69;99070.09;5093519;28;20059;-49
2022/07/17 00:27:48;;;;;;;5.90;1.65;;;;;;;26.32;29.77;99070.09;5092834;28;20371;-49
2022/07/17 00:30:14;;;;;;;8.27;2.20;;;;;;;26.31;29.96;99069.28;5075125;28;20140;-49
2022/07/17 00:32:41;;;;;;;14.07;3.10;;;;;;;26.37;30.00;99067.28;5093216;28;20030;-50
2022/07/17 00:35:07;;;;;;;12.68;3.75;;;;;;;26.39;29.95;99069.69;5075010;28;20524;-49
2022/07/17 00:37:41;;;;;;;5.47;1.40;;;;;;;26.53;29.84;99073.22;5074978;28;20468;-49
2022/07/17 00:40:09;;;;;;;2.17;1.60;;;;;;;26.59;29.52;99063.19;5093095;28;20026;-49
2022/07/17 00:42:35;;;;;;;4.88;1.73;;;;;;;26.49;29.56;99066.81;5074865;28;20024;-49
2022/07/17 00:45:01;;;;;;;4.43;1.40;;;;;;;26.38;30.03;99070.78;5074736;28;20505;-49
2022/07/17 00:47:26;;;;;;;2.20;1.30;;;;;;;26.14;30.02;99068.22;5074755;28;20105;-50
2022/07/17 00:49:52;;;;;;;6.95;1.92;;;;;;;25.80;30.23;99070.06;5092918;28;20053;-48
2022/07/17 00:52:18;;;;;;;5.07;1.70;;;;;;;25.50;31.01;99069.41;5092872;28;20413;-50
2022/07/17 00:54:46;;;;;;;8.63;1.55;;;;;;;25.31;31.38;99066.69;5074596;28;20067;-49
2022/07/17 00:57:14;;;;;;;5.55;1.73;;;;;;;25.16;31.77;99077.59;5074551;28;20028;-48
2022/07/17 00:59:41;;;;;;;5.75;1.65;;;;;;;25.07;32.16;99071.25;5092719;28;20027;-50
2022/07/17 01:02:13;;;;;;;6.28;1.77;;;;;;;24.99;32.85;99069.19;5074533;28;20027;-49
2022/07/17 01:04:40;;;;;;;6.38;2.25;;;;;;;24.79;33.89;99072.88;5092554;28;20024;-49
2022/07/17 01:07:07;;;;;;;8.68;2.22;;;;;;;24.45;34.82;99073.75;5074419;28;20028;-49
2022/07/17 01:09:33;;;;;;;4.30;1.90;;;;;;;24.02;35.35;99068.19;5057900;28;20062;-49
2022/07/17 01:12:00;;;;;;;5.47;2.00;;;;;;;23.69;35.31;99065.94;5092543;28;20032;-49
2022/07/17 01:14:27;;;;;;;3.88;1.92;;;;;;;23.54;36.36;99071.38;5074326;28;20081;-48
2022/07/17 01:16:54;;;;;;;6.35;1.67;;;;;;;23.44;36.07;99072.25;5057600;28;20035;-49
2022/07/17 01:19:21;;;;;;;7.05;2.05;;;;;;;23.35;36.70;99065.88;5073982;28;20062;-48
2022/07/17 01:21:49;;;;;;;5.68;1.67;;;;;;;23.32;36.49;99069.06;5074133;28;20020;-49
2022/07/17 01:24:15;;;;;;;7.63;2.13;;;;;;;23.38;36.30;99067.19;5092278;28;20432;-49
2022/07/17 01:26:46;;;;;;;7.53;1.90;;;;;;;23.55;35.75;99069.53;5092315;28;20024;-49
2022/07/17 01:29:13;;;;;;;5.10;1.67;;;;;;;23.82;35.01;99072.59;5092269;28;20111;-49
2022/07/17 01:31:40;;;;;;;4.05;1.75;;;;;;;23.93;34.99;99071.47;5074046;28;20023;-49
2022/07/17 01:34:07;;;;;;;5.65;1.98;;;;;;;23.99;34.68;99072.22;5074041;28;20036;-49
2022/07/17 01:36:33;;;;;;;7.88;1.70;;;;;;;24.09;34.43;99066.78;5092102;28;20431;-49
2022/07/17 01:38:58;;;;;;;11.80;2.30;;;;;;;24.20;34.58;99072.06;5073148;28;20050;-50
2022/07/17 01:41:24;;;;;;;5.75;1.60;;;;;;;24.36;34.02;99081.59;5092100;28;20027;-49
2022/07/17 01:43:50;;;;;;;13.45;2.03;;;;;;;24.38;33.88;99079.41;5073852;28;20032;-49
2022/07/17 01:46:16;;;;;;;5.05;1.70;;;;;;;24.17;34.83;99078.00;5091982;28;20016;-49
2022/07/17 01:48:41;;;;;;;4.22;1.80;;;;;;;23.92;34.68;99071.72;5091964;28;20040;-50
2022/07/17 01:51:07;;;;;;;4.95;1.80;;;;;;;23.71;35.67;99074.50;5091957;28;20020;-49
2022/07/17 01:53:33;;;;;;;8.10;1.90;;;;;;;23.49;36.48;99079.47;5073750;28;20509;-49
2022/07/17 01:55:59;;;;;;;7.28;1.65;;;;;;;23.26;37.59;99081.72;5057185;28;20028;-49
2022/07/17 01:58:25;;;;;;;7.88;1.60;;;;;;;22.99;38.28;99087.38;5073781;28;20073;-49
2022/07/17 02:00:51;;;;;;;2.85;1.45;;;;;;;22.65;38.34;99082.63;5073898;28;20016;-48
2022/07/17 02:03:17;;;;;;;10.27;2.17;;;;;;;22.39;38.26;99089.88;5091881;28;20027;-49
2022/07/17 02:05:43;;;;;;;12.40;2.83;;;;;;;22.43;37.93;99088.28;5091763;28;20504;-49
2022/07/17 02:08:08;;;;;;;9.13;2.10;;;;;;;22.69;37.60;99082.91;5091781;28;20490;-49
2022/07/17 02:10:34;;;;;;;3.25;1.85;;;;;;;22.94;36.72;99076.72;5073564;28;20028;-49
2022/07/17 02:13:00;;;;;;;12.25;2.85;;;;;;;23.00;38.01;99090.84;5073609;28;20042;-49
2022/07/17 02:15:26;;;;;;;16.00;3.10;;;;;;;22.88;38.98;99086.63;5091728;28;20028;-49
2022/07/17 02:17:52;;;;;;;6.13;1.80;;;;;;;22.76;38.22;99088.78;5091479;28;20028;-49
2022/07/17 02:20:18;;;;;;;10.15;1.85;;;;;;;22.71;38.48;99084.22;5091647;28;20027;-48
2022/07/17 02:22:45;;;;;;;14.27;2.55;;;;;;;22.75;39.39;99084.50;5073468;28;20053;-49
2022/07/17 02:25:11;;;;;;;10.15;2.55;;;;;;;22.63;39.43;99084.78;5091556;28;20035;-49
2022/07/17 02:27:38;;;;;;;4.97;1.73;;;;;;;22.35;40.02;99086.13;5073476;28;20023;-49
2022/07/17 02:30:07;;;;;;;2.22;1.50;;;;;;;22.00;40.57;99085.03;5091551;28;20024;-48
2022/07/17 02:32:32;;;;;;;8.82;2.67;;;;;;;21.71;41.18;99079.34;5091550;28;20181;-49
2022/07/17 02:34:58;;;;;;;5.93;1.80;;;;;;;21.48;41.79;99088.66;5073437;28;20459;-48
2022/07/17 02:37:23;;;;;;;10.73;7.10;;;;;;;21.34;42.14;99089.09;5073346;28;20028;-49
2022/07/17 02:39:52;;;;;;;9.98;3.53;;;;;;;21.23;42.76;99083.97;5073296;28;20020;-49
2022/07/17 02:42:22;;;;;;;10.98;3.58;;;;;;;21.00;43.18;99083.31;5091450;28;20023;-49
2022/07/17 02:44:48;;;;;;;13.40;2.72;;;;;;;20.97;43.25;99083.03;5091345;28;20505;-49
2022/07/17 02:47:30;;;;;;;6.45;2.10;;;;;;;21.00;43.71;99085.19;5091425;28;20111;-49
2022/07/17 02:49:56;;;;;;;8.60;2.30;;;;;;;21.11;43.38;99085.00;5092550;28;20105;-49
2022/07/17 02:52:21;;;;;;;6.88;1.95;;;;;;;21.05;43.20;99091.38;5095194;28;20054;-49
2022/07/17 02:54:47;;;;;;;5.50;1.98;;;;;;;20.92;43.68;99081.16;5077018;28;20028;-48
2022/07/17 02:57:13;;;;;;;6.25;2.20;;;;;;;20.84;43.71;99087.78;5095119;28;20024;-49
2022/07/17 02:59:39;;;;;;;5.55;1.80;;;;;;;20.82;44.18;99092.56;5076908;28;20030;-49
2022/07/17 03:02:05;;;;;;;8.60;2.58;;;;;;;20.85;44.38;99093.94;5076809;28;20063;-49
2022/07/17 03:04:30;;;;;;;6.45;1.50;;;;;;;20.86;44.28;99093.66;5076751;28;20385;-49
2022/07/17 03:06:56;;;;;;;9.18;2.50;;;;;;;20.87;44.13;99092.59;5094981;28;20491;-49
2022/07/17 03:09:22;;;;;;;7.28;2.25;;;;;;;20.82;44.16;99097.09;5094886;28;20028;-48
2022/07/17 03:11:48;;;;;;;9.00;2.67;;;;;;;20.63;44.44;99092.19;5076792;28;20016;-48
2022/07/17 03:14:13;;;;;;;5.07;2.13;;;;;;;20.42;44.82;99101.84;5076589;28;20046;-49
2022/07/17 03:16:39;;;;;;;6.35;2.10;;;;;;;20.27;45.51;99099.88;5076559;28;20028;-49
2022/07/17 03:19:05;;;;;;;8.18;1.90;;;;;;;20.17;45.98;99105.09;5094546;28;20050;-49
2022/07/17 03:21:31;;;;;;;3.38;1.95;;;;;;;20.10;45.77;99102.66;5076383;28;20075;-49
2022/07/17 03:23:56;;;;;;;5.10;1.92;;;;;;;20.09;45.69;99094.91;5076355;28;20028;-49
2022/07/17 03:26:22;;;;;;;10.05;2.00;;;;;;;20.11;45.22;99101.59;5059715;28;20020;-49
2022/07/17 03:28:48;;;;;;;2.97;1.90;;;;;;;20.26;44.65;99102.78;5094426;28;20052;-48
2022/07/17 03:31:13;;;;;;;7.18;1.98;;;;;;;20.43;44.35;99094.66;5094481;28;20027;-49
2022/07/17 03:33:39;;;;;;;7.40;1.75;;;;;;;20.64;43.57;99100.97;5076211;28;20468;-49
2022/07/17 03:36:06;;;;;;;6.35;1.90;;;;;;;20.86;43.13;99098.97;5076190;28;20030;-49
2022/07/17 03:38:32;;;;;;;5.85;1.77;;;;;;;20.91;43.48;99099.03;5076109;28;20413;-49
2022/07/17 03:41:00;;;;;;;4.50;1.60;;;;;;;20.93;43.30;99102.25;5094306;28;20050;-49
2022/07/17 03:43:26;;;;;;;7.05;2.92;;;;;;;20.91;42.98;99098.22;5094254;28;20052;-49
2022/07/17 03:45:52;;;;;;;16.40;2.63;;;;;;;20.97;42.26;99096.38;5094071;28;20082;-49
2022/07/17 03:48:17;;;;;;;7.28;3.55;;;;;;;21.04;42.44;99099.63;5094132;28;20107;-49
2022/07/17 03:50:43;;;;;;;11.15;2.72;;;;;;;20.93;42.85;99102.25;5094064;28;20099;-49
2022/07/17 03:53:09;;;;;;;11.68;3.00;;;;;;;20.70;43.08;99097.28;5094031;28;20051;-49
2022/07/17 03:55:35;;;;;;;5.53;1.90;;;;;;;20.51;43.37;99096.88;5093971;28;20084;-49
2022/07/17 03:58:01;;;;;;;4.25;2.22;;;;;;;20.33;44.05;99106.03;5093998;28;20021;-49
2022/07/17 04:00:27;;;;;;;5.05;2.80;;;;;;;20.20;44.35;99098.47;5075657;28;20023;-49
2022/07/17 04:02:53;;;;;;;11.18;2.78;;;;;;;20.20;45.25;99098.47;5092987;28;20073;-49
2022/07/17 04:05:18;;;;;;;12.07;2.65;;;;;;;19.98;45.84;99104.69;5093743;28;20028;-49
2022/07/17 04:07:44;;;;;;;4.40;2.28;;;;;;;19.82;45.96;99110.88;5075667;28;20026;-49
2022/07/17 04:10:13;;;;;;;5.22;1.77;;;;;;;19.79;45.91;99106.06;5075869;28;20341;-48
2022/07/17 04:12:39;;;;;;;8.70;3.03;;;;;;;19.69;46.31;99114.72;5075463;28;20024;-49
2022/07/17 04:15:05;;;;;;;3.58;1.98;;;;;;;19.59;46.72;99111.94;5093930;28;20055;-49
2022/07/17 04:17:31;;;;;;;5.57;2.10;;;;;;;19.67;46.46;99112.28;5093521;28;20063;-49
2022/07/17 04:19:57;;;;;;;13.90;2.10;;;;;;;19.68;46.53;99113.91;5075242;28;20372;-49
2022/07/17 04:22:23;;;;;;;6.80;2.17;;;;;;;19.62;46.89;99122.06;5075256;28;20017;-49
2022/07/17 04:24:50;;;;;;;7.25;2.15;;;;;;;19.60;47.62;99122.34;5093313;28;20048;-49
2022/07/17 04:27:15;;;;;;;6.22;2.10;;;;;;;19.73;46.97;99115.84;5093383;28;20074;-49
2022/07/17 04:29:41;;;;;;;2.40;1.83;;;;;;;19.82;46.50;99114.38;5058464;28;20035;-48
2022/07/17 04:32:08;;;;;;;5.70;2.25;;;;;;;19.87;46.47;99113.59;5075115;28;20024;-48
2022/07/17 04:34:34;;;;;;;4.55;2.28;;;;;;;19.96;45.95;99117.44;5093229;28;20547;-49
2022/07/17 04:37:01;;;;;;;3.15;1.95;;;;;;;20.15;45.43;99115.22;5075017;28;20016;-49
2022/07/17 04:39:26;;;;;;;7.22;2.22;;;;;;;20.67;44.77;99113.81;5093113;28;20024;-48
2022/07/17 04:41:52;;;;;;;2.30;1.80;;;;;;;21.50;42.67;99111.34;5074899;28;20012;-49
2022/07/17 04:44:18;;;;;;;5.50;2.30;;;;;;;22.47;40.31;99105.38;5074798;28;20054;-49
2022/07/17 04:46:44;;;;;;;11.15;2.38;;;;;;;23.39;38.47;99100.94;5092991;28;20039;-49
2022/07/17 04:49:10;;;;;;;3.35;1.75;;;;;;;23.95;37.37;99105.25;5074811;28;20439;-49
2022/07/17 04:51:36;;;;;;;11.65;2.50;;;;;;;24.35;36.63;99106.00;5074768;28;20024;-49
2022/07/17 04:54:02;;;;;;;4.18;1.77;;;;;;;24.61;36.29;99115.47;5074701;28;20447;-49
2022/07/17 04:56:27;;;;;;;6.25;2.40;;;;;;;24.91;35.97;99109.03;5092829;28;20420;-48
2022/07/17 04:58:53;;;;;;;5.00;2.50;;;;;;;24.92;35.89;99115.97;5092890;28;20055;-49
2022/07/17 05:01:19;;;;;;;11.68;3.33;;;;;;;24.98;35.65;99111.34;5074522;28;20107;-49
2022/07/17 05:03:44;;;;;;;17.52;4.88;;;;;;;25.05;35.35;99109.16;5074588;28;20108;-49
2022/07/17 05:06:10;;;;;;;11.32;4.55;;;;;;;25.19;34.88;99113.81;5074425;28;20389;-49
2022/07/17 05:08:37;;;;;;;8.73;3.72;;;;;;;25.64;34.26;99115.16;5074560;28;20092;-49
2022/07/17 05:11:02;;;;;;;8.70;4.25;;;;;;;26.28;33.08;99112.13;5092617;28;20069;-49
2022/07/17 05:13:28;;;;;;;8.30;3.47;;;;;;;26.89;31.69;99116.47;5092413;28;20021;-48
2022/07/17 05:15:54;;;;;;;5.43;3.00;;;;;;;27.45;30.81;99116.53;5092482;28;20024;-49
2022/07/17 05:18:19;;;;;;;7.75;2.42;;;;;;;28.05;30.27;99110.91;5092333;28;20085;-49
2022/07/17 05:20:45;;;;;;;12.55;2.90;;;;;;;28.42;29.81;99114.31;5074246;28;20527;-48
2022/07/17 05:23:11;;;;;;;4.25;1.88;;;;;;;28.81;28.67;99110.09;5092391;28;20319;-50
2022/07/17 05:25:36;;;;;;;8.52;2.15;;;;;;;28.93;28.56;99109.53;5092252;28;20024;-49
2022/07/17 05:28:02;;;;;;;7.85;2.42;;;;;;;28.73;28.66;99110.06;5092616;28;20024;-49
2022/07/17 05:30:29;;;;;;;4.75;1.92;;;;;;;28.81;28.69;99120.13;5092223;28;20012;-49
2022/07/17 05:32:54;;;;;;;6.32;1.95;;;;;;;29.55;28.01;99124.06;5074058;28;20024;-49
2022/07/17 05:35:20;;;;;;;5.40;2.10;;;;;;;30.45;26.62;99129.69;5073987;28;20039;-50
2022/07/17 05:37:46;;;;;;;7.63;2.28;;;;;;;30.70;26.08;99123.72;5092157;28;20032;-49
2022/07/17 05:40:12;;;;;;;3.38;1.85;;;;;;;30.17;26.53;99126.50;5073903;28;20050;-49
2022/07/17 05:42:38;;;;;;;7.78;2.13;;;;;;;30.50;25.97;99133.34;5073922;28;20032;-49
2022/07/17 05:45:04;;;;;;;7.95;2.40;;;;;;;30.84;25.66;99129.72;5073820;28;20038;-50
2022/07/17 05:47:30;;;;;;;4.30;1.88;;;;;;;31.36;25.10;99137.66;5073888;28;20085;-50
2022/07/17 05:49:56;;;;;;;3.78;1.90;;;;;;;32.14;23.86;99135.59;5092024;28;20020;-49
2022/07/17 05:52:21;;;;;;;6.75;2.20;;;;;;;32.77;23.41;99138.94;5091921;28;20039;-49
2022/07/17 05:54:47;;;;;;;5.03;2.47;;;;;;;33.53;22.17;99136.72;5091949;28;20016;-50
2022/07/17 05:57:13;;;;;;;15.60;2.33;;;;;;;33.93;21.92;99144.13;5091881;28;20090;-49
2022/07/17 05:59:39;;;;;;;7.07;1.80;;;;;;;34.72;21.11;99138.13;5073770;28;20024;-49
2022/07/17 06:02:05;;;;;;;10.02;1.80;;;;;;;35.19;20.72;99140.09;5073731;28;20111;-49
2022/07/17 06:04:30;;;;;;;7.25;2.33;;;;;;;35.31;20.34;99131.00;5073968;28;20024;-49
2022/07/17 06:06:56;;;;;;;8.48;2.45;;;;;;;35.58;20.02;99134.72;5073714;28;20401;-50
2022/07/17 06:09:22;;;;;;;8.85;2.00;;;;;;;36.13;19.49;99137.41;5073642;28;20120;-50
2022/07/17 06:11:47;;;;;;;7.95;2.10;;;;;;;36.48;19.09;99142.00;5091766;28;20039;-50
2022/07/17 06:14:14;;;;;;;11.43;2.20;;;;;;;36.72;19.03;99140.09;5091666;28;20024;-50
2022/07/17 06:16:40;;;;;;;10.13;2.20;;;;;;;37.11;18.68;99146.25;5091772;28;20027;-50
2022/07/17 06:19:06;;;;;;;8.23;2.67;;;;;;;37.47;18.09;99145.97;5073388;28;20044;-50
2022/07/17 06:21:32;;;;;;;4.95;1.55;;;;;;;37.57;17.63;99139.88;5091588;28;20032;-50
2022/07/17 06:23:57;;;;;;;10.90;2.80;;;;;;;37.45;17.81;99142.81;5073563;28;20024;-49
2022/07/17 06:26:23;;;;;;;6.30;1.60;;;;;;;37.84;17.52;99135.16;5076988;28;20061;-50
2022/07/17 06:28:49;;;;;;;4.53;1.80;;;;;;;38.19;17.09;99134.00;5060848;28;20065;-50
2022/07/17 06:31:15;;;;;;;4.85;1.75;;;;;;;38.51;16.72;99136.28;5095643;28;20056;-50
2022/07/17 06:33:40;;;;;;;8.23;2.80;;;;;;;38.70;16.80;99136.09;5077466;28;20024;-50
2022/07/17 06:36:06;;;;;;;4.90;2.97;;;;;;;38.98;15.98;99134.78;5077388;28;20024;-51
2022/07/17 06:38:33;;;;;;;4.32;1.60;;;;;;;39.13;16.07;99132.91;5077232;28;20036;-50
2022/07/17 06:41:00;;;;;;;9.98;1.80;;;;;;;39.37;15.91;99128.75;5077295;28;20027;-50
2022/07/17 06:43:25;;;;;;;4.50;1.83;;;;;;;39.46;15.76;99131.19;5077170;28;20035;-50
2022/07/17 06:45:53;;;;;;;9.32;2.60;;;;;;;39.53;15.92;99132.00;5077022;28;20024;-50
2022/07/17 06:48:22;;;;;;;5.35;1.50;;;;;;;39.62;15.31;99145.38;5095395;28;20020;-50
2022/07/17 06:50:51;;;;;;;4.47;1.70;;;;;;;39.91;15.24;99137.31;5077084;28;20024;-49
2022/07/17 06:53:17;;;;;;;8.82;2.15;;;;;;;40.07;15.16;99145.22;5095193;28;20400;-50
2022/07/17 06:55:42;;;;;;;6.43;1.90;;;;;;;39.88;15.48;99154.56;5076959;28;20024;-50
2022/07/17 06:58:08;;;;;;;3.88;1.77;;;;;;;39.79;15.79;99151.38;5095124;28;20082;-49
2022/07/17 07:00:34;;;;;;;13.07;2.80;;;;;;;39.54;15.62;99150.06;5076980;28;20115;-48
2022/07/17 07:03:00;;;;;;;2.67;1.70;;;;;;;39.81;15.66;99143.53;5095041;28;20027;-49
2022/07/17 07:05:25;;;;;;;5.03;1.45;;;;;;;40.10;15.39;99150.72;5094926;28;20513;-50
2022/07/17 07:07:51;;;;;;;5.43;1.92;;;;;;;40.31;15.46;99144.50;5094983;28;20073;-49
2022/07/17 07:10:17;;;;;;;8.18;2.20;;;;;;;40.38;15.13;99149.22;5076588;28;20038;-50
2022/07/17 07:12:43;;;;;;;5.60;1.83;;;;;;;40.61;14.80;99159.91;5094959;28;20035;-48
2022/07/17 07:15:09;;;;;;;2.83;1.48;;;;;;;41.07;14.48;99158.31;5076744;28;20027;-48
2022/07/17 07:17:36;;;;;;;4.90;1.80;;;;;;;41.32;14.24;99156.34;5094772;28;20497;-49
2022/07/17 07:20:06;;;;;;;3.38;1.30;;;;;;;41.38;14.08;99165.00;5094500;28;20051;-49
2022/07/17 07:22:32;;;;;;;11.02;2.22;;;;;;;41.39;14.15;99160.28;5094764;28;20077;-49
2022/07/17 07:24:58;;;;;;;10.80;2.03;;;;;;;41.36;14.50;99161.09;5094628;28;20020;-50
2022/07/17 07:27:24;;;;;;;5.88;2.00;;;;;;;41.24;14.53;99156.78;5076427;28;20059;-50
2022/07/17 07:29:50;;;;;;;7.35;2.17;;;;;;;41.16;14.38;99166.97;5076303;28;20465;-50
2022/07/17 07:32:16;;;;;;;5.18;1.98;;;;;;;40.78;14.72;99172.09;5076273;28;20058;-50
2022/07/17 07:34:42;;;;;;;13.00;2.25;;;;;;;40.09;15.80;99171.13;5076306;28;20409;-49
2022/07/17 07:37:07;;;;;;;5.20;2.15;;;;;;;39.53;15.68;99167.72;5093005;28;20016;-50
2022/07/17 07:39:36;;;;;;;3.70;1.80;;;;;;;38.96;16.23;99168.06;5094328;28;20028;-49
2022/07/17 07:42:03;;;;;;;4.55;1.83;;;;;;;38.54;16.76;99166.50;5076076;28;20032;-50
2022/07/17 07:44:28;;;;;;;16.20;2.65;;;;;;;38.00;17.88;99169.78;5094194;28;20115;-50
2022/07/17 07:46:54;;;;;;;7.18;2.42;;;;;;;37.57;18.19;99180.94;5094193;28;20104;-50
2022/07/17 07:49:23;;;;;;;12.65;2.70;;;;;;;37.36;18.44;99179.47;5094113;28;20106;-50
2022/07/17 07:51:49;;;;;;;5.22;1.50;;;;;;;37.52;18.18;99179.31;5075902;28;20031;-49
2022/07/17 07:54:14;;;;;;;6.20;1.60;;;;;;;37.77;17.73;99178.88;5094065;28;20478;-49
2022/07/17 07:56:40;;;;;;;5.40;1.92;;;;;;;38.23;17.59;99175.16;5093983;28;20028;-50
2022/07/17 07:59:06;;;;;;;9.55;2.40;;;;;;;38.88;16.54;99171.16;5075718;28;20027;-49
2022/07/17 08:01:31;;;;;;;8.65;1.70;;;;;;;39.59;16.15;99170.91;5093914;28;20512;-50
2022/07/17 08:03:57;;;;;;;5.22;1.60;;;;;;;40.36;15.87;99173.59;5093899;28;20430;-50
2022/07/17 08:06:23;;;;;;;6.05;1.92;;;;;;;40.88;14.76;99176.81;5093759;28;20039;-50
2022/07/17 08:08:48;;;;;;;8.70;1.75;;;;;;;41.40;14.81;99181.94;5093690;28;20027;-50
2022/07/17 08:11:17;;;;;;;6.70;1.73;;;;;;;42.01;14.23;99176.22;5093706;28;20024;-50
2022/07/17 08:13:43;;;;;;;6.03;1.70;;;;;;;42.35;13.90;99183.19;5093658;28;20120;-50
2022/07/17 08:16:08;;;;;;;4.72;1.75;;;;;;;42.69;13.62;99175.88;5093595;28;20110;-49
2022/07/17 08:18:34;;;;;;;8.68;1.90;;;;;;;42.87;13.28;99178.50;5069493;28;20040;-49
2022/07/17 08:21:00;;;;;;;5.60;1.90;;;;;;;43.16;13.29;99183.00;5055267;28;20024;-47
2022/07/17 08:23:25;;;;;;;3.97;1.70;;;;;;;43.47;12.58;99179.16;5055258;28;20028;-49
2022/07/17 08:25:51;;;;;;;10.25;2.30;;;;;;;43.66;12.72;99171.44;5073116;28;20437;-50
2022/07/17 08:28:17;;;;;;;4.72;1.63;;;;;;;43.67;12.91;99171.06;5055236;28;20119;-48
2022/07/17 08:30:43;;;;;;;15.30;2.60;;;;;;;43.85;13.11;99168.09;5073029;28;20104;-48
2022/07/17 08:33:09;;;;;;;3.65;1.85;;;;;;;43.71;13.18;99168.25;5073072;28;20031;-49
2022/07/17 08:35:36;;;;;;;4.50;1.65;;;;;;;42.74;13.53;99177.41;5055162;28;20025;-50
2022/07/17 08:38:02;;;;;;;3.92;1.75;;;;;;;42.34;13.73;99174.13;5038547;28;20433;-50
2022/07/17 08:40:32;;;;;;;12.65;6.50;;;;;;;43.09;12.92;99170.81;5054961;28;20025;-50
2022/07/17 08:42:59;;;;;;;7.38;3.28;;;;;;;43.64;13.08;99173.84;5054932;28;20020;-50
2022/07/17 08:45:26;;;;;;;5.43;2.00;;;;;;;43.70;12.66;99177.75;5072753;28;20048;-50
2022/07/17 08:47:53;;;;;;;16.73;2.72;;;;;;;43.87;12.52;99171.22;5072407;28;20451;-50
2022/07/17 08:50:26;;;;;;;6.45;1.73;;;;;;;44.16;12.57;99184.69;5072913;28;20017;-49
2022/07/17 08:52:52;;;;;;;;;;;;;;;43.38;13.21;99181.63;5073226;28;20135;-50
2022/07/17 08:55:18;;;;;;;9.73;2.00;;;;;;;42.86;13.41;99184.44;5054799;28;19987;-50
2022/07/17 08:57:45;;;;;;;9.50;2.28;;;;;;;43.45;12.81;99178.78;5072616;28;20031;-50
2022/07/17 09:00:18;;;;;;;7.32;1.73;;;;;;;44.25;12.26;99184.16;5072530;28;20511;-50
2022/07/17 09:02:57;;;;;;;9.80;2.20;;;;;;;44.46;12.32;99183.09;5072596;28;20127;-49
2022/07/17 09:05:25;;;;;;;8.05;2.05;;;;;;;44.14;12.08;99192.63;5072312;28;20082;-49
2022/07/17 09:07:51;;;;;;;16.70;2.55;;;;;;;44.24;12.31;99191.69;5072423;28;20024;-48
2022/07/17 09:10:17;;;;;;;18.35;2.72;;;;;;;44.46;12.36;99191.38;5054367;28;20030;-49
2022/07/17 09:12:43;;;;;;;5.85;2.05;;;;;;;44.71;11.85;99185.47;5072354;28;20016;-49
2022/07/17 09:15:17;;;;;;;16.52;3.03;;;;;;;44.51;12.03;99174.31;5072437;28;20390;-47
2022/07/17 09:17:53;;;;;;;9.70;2.33;;;;;;;44.54;12.02;99178.25;5072255;28;20490;-49
2022/07/17 09:20:20;;;;;;;8.73;1.77;;;;;;;44.59;11.68;99184.06;5072428;28;20040;-47
2022/07/17 09:23:01;;;;;;;10.60;2.25;;;;;;;45.41;11.85;99193.03;5072089;28;20032;-48
2022/07/17 09:25:36;;;;;;;5.60;2.28;;;;;;;45.26;11.45;99191.75;5072077;28;20029;-50
2022/07/17 09:28:06;;;;;;;13.07;2.72;;;;;;;45.42;11.42;99191.81;5072028;28;20053;-50
2022/07/17 09:30:34;;;;;;;16.95;2.67;;;;;;;45.38;11.33;99193.88;5054125;28;20177;-50
2022/07/17 09:33:00;;;;;;;9.23;2.08;;;;;;;45.44;10.89;99192.19;5072063;28;20029;-51
2022/07/17 09:35:26;;;;;;;10.93;2.38;;;;;;;45.39;11.13;99192.66;5072195;28;20512;-51
2022/07/17 09:37:54;;;;;;;10.02;2.30;;;;;;;45.00;11.40;99190.59;5053924;28;20551;-50
2022/07/17 09:43:08;;;;;;;4.22;1.80;;;;;;;44.72;11.73;99189.06;5071951;28;20131;-50
2022/07/17 09:45:36;;;;;;;10.05;1.85;;;;;;;45.44;10.83;99192.19;5071832;28;20025;-49
2022/07/17 09:48:03;;;;;;;4.78;1.60;;;;;;;45.29;11.40;99188.09;5071886;28;20636;-49
2022/07/17 09:50:30;;;;;;;4.35;1.70;;;;;;;45.50;11.20;99194.44;5072094;28;20100;-47
2022/07/17 09:52:57;;;;;;;3.28;1.50;;;;;;;45.54;11.09;99195.16;5071842;28;20021;-49
2022/07/17 09:55:33;;;;;;;8.02;1.80;;;;;;;45.52;11.01;99189.25;5054104;28;20412;-51
2022/07/17 09:58:00;;;;;;;4.68;2.10;;;;;;;45.24;11.23;99191.34;5053855;28;20028;-49
2022/07/17 10:00:26;;;;;;;8.57;1.60;;;;;;;44.94;10.97;99192.28;5053218;28;20105;-49
2022/07/17 10:02:53;;;;;;;14.77;2.47;;;;;;;44.78;11.39;99192.91;5053651;28;20090;-49
2022/07/17 10:05:18;;;;;;;13.48;2.58;;;;;;;44.72;11.82;99191.81;5071612;28;20020;-49
2022/07/17 10:07:47;;;;;;;6.55;1.40;;;;;;;44.27;11.79;99201.13;5071637;28;20029;-49
2022/07/17 10:10:15;;;;;;;6.78;2.05;;;;;;;44.15;12.21;99193.41;5071578;28;20107;-48
2022/07/17 10:12:46;;;;;;;2.38;1.50;;;;;;;44.10;11.73;99196.66;5071565;28;20083;-49
2022/07/17 10:15:13;;;;;;;6.75;2.30;;;;;;;44.52;11.43;99186.19;5053905;28;20029;-49
2022/07/17 10:17:38;;;;;;;6.53;1.92;;;;;;;44.86;11.76;99202.66;5071566;28;20029;-50
2022/07/17 10:20:05;;;;;;;5.05;2.10;;;;;;;45.26;11.44;99200.06;5035170;28;20045;-51
2022/07/17 10:22:42;;;;;;;9.35;1.80;;;;;;;45.57;10.97;99208.19;5033612;28;20035;-52
2022/07/17 10:25:14;;;;;;;5.20;1.85;;;;;;;45.56;10.60;99196.31;5051370;28;20021;-52
2022/07/17 10:27:51;;;;;;;5.57;1.58;;;;;;;45.24;10.75;99197.66;5051551;28;20021;-53
2022/07/17 10:30:26;;;;;;;5.13;1.70;;;;;;;45.42;10.89;99197.38;5051476;28;20029;-53
2022/07/17 10:32:58;;;;;;;6.43;1.83;;;;;;;45.74;10.53;99196.00;5051396;28;20029;-53
2022/07/17 10:35:25;;;;;;;10.30;2.10;;;;;;;46.27;10.48;99198.84;5051362;28;20116;-53
2022/07/17 10:37:51;;;;;;;3.85;1.65;;;;;;;46.35;10.42;99197.47;5051384;28;20063;-52
2022/07/17 10:40:24;;;;;;;6.38;1.70;;;;;;;46.35;10.61;99191.91;5051350;28;20455;-52
2022/07/17 10:42:49;;;;;;;4.35;1.40;;;;;;;46.49;10.34;99193.63;5033409;28;20067;-52
2022/07/17 10:45:26;;;;;;;6.43;1.95;;;;;;;45.95;10.82;99193.97;5033379;28;20447;-52
2022/07/17 10:47:53;;;;;;;5.15;1.80;;;;;;;45.39;11.05;99192.66;5051526;28;20052;-53
2022/07/17 10:50:22;;;;;;;7.50;2.00;;;;;;;45.15;11.73;99183.56;5051221;28;20024;-49
2022/07/17 10:53:03;;;;;;;3.13;1.60;;;;;;;44.93;11.57;99180.41;5051220;28;20025;-51
2022/07/17 10:55:29;;;;;;;5.43;1.60;;;;;;;44.21;12.37;99178.69;5033314;28;20043;-51
2022/07/17 10:57:55;;;;;;;4.95;2.25;;;;;;;44.00;11.82;99193.56;5033241;28;20500;-50
2022/07/17 11:00:21;;;;;;;4.55;2.15;;;;;;;44.40;11.60;99179.22;5033236;28;20029;-51
2022/07/17 11:02:47;;;;;;;5.88;1.98;;;;;;;44.79;11.78;99186.94;5051307;28;20486;-51
2022/07/17 11:05:15;;;;;;;5.97;1.77;;;;;;;45.11;11.44;99179.31;5050860;28;20029;-51
2022/07/17 11:07:53;;;;;;;4.35;1.70;;;;;;;45.14;11.08;99172.91;5051073;28;20067;-52
2022/07/17 11:10:21;;;;;;;3.33;1.33;;;;;;;45.32;11.17;99181.72;5051219;28;20128;-53
2022/07/17 11:12:47;;;;;;;4.40;1.58;;;;;;;45.20;11.34;99166.47;5054875;28;20025;-53
2022/07/17 11:15:13;;;;;;;6.57;2.05;;;;;;;44.82;11.80;99165.94;5054565;28;20155;-52
2022/07/17 11:17:44;;;;;;;5.43;1.55;;;;;;;44.63;11.58;99172.94;5020087;28;20033;-53
2022/07/17 11:20:10;;;;;;;5.30;2.08;;;;;;;44.30;12.12;99160.78;5073161;28;20127;-51
2022/07/17 11:22:36;;;;;;;6.82;1.80;;;;;;;44.26;12.20;99163.59;5056621;28;20116;-52
2022/07/17 11:25:05;;;;;;;4.75;1.70;;;;;;;44.27;12.11;99167.94;5074251;28;20028;-52
2022/07/17 11:27:31;;;;;;;6.05;1.80;;;;;;;44.54;11.68;99169.94;5040124;28;20025;-52
2022/07/17 11:29:59;;;;;;;4.35;1.60;;;;;;;44.35;12.25;99169.38;5074329;28;20043;-53
2022/07/17 11:32:32;;;;;;;6.95;1.70;;;;;;;43.88;12.32;99172.78;5074231;28;20051;-53